sensor_id;sensor_type;location;lat;lon;timestamp;pressure;altitude;pressure_sealevel;temperature;humidity
8573;BME280;4324;42.012;24.872;2023-04-05T00:01:56;98153.88;;;8.43;70.26
8573;BME280;4324;42.012;24.872;2023-04-05T00:04:23;98158.31;;;8.42;70.14
8573;BME280;4324;42.012;24.872;2023-04-05T00:06:50;98145.63;;;8.38;69.93
8573;BME280;4324;42.012;24.872;2023-04-05T00:09:17;98155.03;;;8.32;69.59
8573;BME280;4324;42.012;24.872;2023-04-05T00:11:45;98154.84;;;8.34;68.74
8573;BME280;4324;42.012;24.872;2023-04-05T00:14:14;98167.56;;;8.30;68.54
8573;BME280;4324;42.012;24.872;2023-04-05T00:16:41;98152.25;;;8.25;68.98
8573;BME280;4324;42.012;24.872;2023-04-05T00:19:08;98161.31;;;8.31;69.95
8573;BME280;4324;42.012;24.872;2023-04-05T00:21:38;98168.06;;;8.34;70.04
8573;BME280;4324;42.012;24.872;2023-04-05T00:24:05;98155.56;;;8.28;71.55
8573;BME280;4324;42.012;24.872;2023-04-05T00:26:32;98183.25;;;8.32;71.12
8573;BME280;4324;42.012;24.872;2023-04-05T00:29:00;98172.25;;;8.12;70.22
8573;BME280;4324;42.012;24.872;2023-04-05T00:31:29;98168.78;;;8.19;69.67
8573;BME280;4324;42.012;24.872;2023-04-05T00:33:56;98163.72;;;8.10;69.54
8573;BME280;4324;42.012;24.872;2023-04-05T00:36:23;98165.34;;;8.11;69.19
8573;BME280;4324;42.012;24.872;2023-04-05T00:38:50;98177.19;;;8.15;69.03
8573;BME280;4324;42.012;24.872;2023-04-05T00:41:17;98173.09;;;8.12;69.19
8573;BME280;4324;42.012;24.872;2023-04-05T00:43:44;98149.91;;;7.99;69.58
8573;BME280;4324;42.012;24.872;2023-04-05T00:46:11;98147.75;;;8.03;70.30
8573;BME280;4324;42.012;24.872;2023-04-05T00:48:39;98172.41;;;8.18;70.29
8573;BME280;4324;42.012;24.872;2023-04-05T00:51:06;98163.38;;;8.13;69.70
8573;BME280;4324;42.012;24.872;2023-04-05T00:53:36;98151.72;;;7.99;69.22
8573;BME280;4324;42.012;24.872;2023-04-05T00:56:03;98161.94;;;8.02;68.98
8573;BME280;4324;42.012;24.872;2023-04-05T00:58:30;98152.25;;;7.94;68.66
8573;BME280;4324;42.012;24.872;2023-04-05T01:01:02;98179.22;;;8.05;68.92
8573;BME280;4324;42.012;24.872;2023-04-05T01:03:33;98157.97;;;8.06;69.86
8573;BME280;4324;42.012;24.872;2023-04-05T01:06:15;98155.03;;;8.01;69.22
8573;BME280;4324;42.012;24.872;2023-04-05T01:08:53;98173.09;;;8.04;68.88
8573;BME280;4324;42.012;24.872;2023-04-05T01:11:22;98176.94;;;8.02;68.92
8573;BME280;4324;42.012;24.872;2023-04-05T01:13:57;98143.53;;;7.78;69.13
8573;BME280;4324;42.012;24.872;2023-04-05T01:16:24;98176.13;;;8.01;69.04
8573;BME280;4324;42.012;24.872;2023-04-05T01:18:51;98163.13;;;7.91;69.65
8573;BME280;4324;42.012;24.872;2023-04-05T01:21:44;98172.81;;;7.99;69.86
8573;BME280;4324;42.012;24.872;2023-04-05T01:24:20;98166.53;;;8.00;71.04
8573;BME280;4324;42.012;24.872;2023-04-05T01:26:59;98180.53;;;8.00;70.68
8573;BME280;4324;42.012;24.872;2023-04-05T01:29:59;98181.53;;;7.99;70.61
8573;BME280;4324;42.012;24.872;2023-04-05T01:32:38;98172.13;;;7.97;69.70
8573;BME280;4324;42.012;24.872;2023-04-05T01:35:11;98180.41;;;7.94;71.20
8573;BME280;4324;42.012;24.872;2023-04-05T01:37:44;98188.63;;;7.99;70.55
8573;BME280;4324;42.012;24.872;2023-04-05T01:40:14;98177.13;;;7.92;69.80
8573;BME280;4324;42.012;24.872;2023-04-05T01:42:43;98206.78;;;7.94;70.17
8573;BME280;4324;42.012;24.872;2023-04-05T01:45:12;98203.81;;;7.89;68.87
8573;BME280;4324;42.012;24.872;2023-04-05T01:47:38;98192.78;;;7.85;69.38
8573;BME280;4324;42.012;24.872;2023-04-05T01:50:07;98185.38;;;7.81;70.17
8573;BME280;4324;42.012;24.872;2023-04-05T01:52:34;98193.59;;;7.86;71.40
8573;BME280;4324;42.012;24.872;2023-04-05T01:55:01;98174.34;;;7.77;70.04
8573;BME280;4324;42.012;24.872;2023-04-05T01:57:29;98191.31;;;7.83;71.65
8573;BME280;4324;42.012;24.872;2023-04-05T01:59:55;98195.38;;;7.93;71.27
8573;BME280;4324;42.012;24.872;2023-04-05T02:02:24;98199.84;;;7.93;70.23
8573;BME280;4324;42.012;24.872;2023-04-05T02:04:51;98201.13;;;7.97;71.07
8573;BME280;4324;42.012;24.872;2023-04-05T02:07:18;98209.41;;;7.94;69.96
8573;BME280;4324;42.012;24.872;2023-04-05T02:09:45;98195.25;;;7.87;69.60
8573;BME280;4324;42.012;24.872;2023-04-05T02:12:11;98196.56;;;7.91;70.59
8573;BME280;4324;42.012;24.872;2023-04-05T02:14:38;98212.72;;;7.88;69.84
8573;BME280;4324;42.012;24.872;2023-04-05T02:17:05;98188.03;;;7.72;69.40
8573;BME280;4324;42.012;24.872;2023-04-05T02:19:33;98180.47;;;7.61;68.91
8573;BME280;4324;42.012;24.872;2023-04-05T02:22:05;98213.38;;;7.82;69.04
8573;BME280;4324;42.012;24.872;2023-04-05T02:24:32;98212.06;;;7.78;68.69
8573;BME280;4324;42.012;24.872;2023-04-05T02:26:59;98196.94;;;7.63;68.70
8573;BME280;4324;42.012;24.872;2023-04-05T02:29:26;98215.03;;;7.74;68.53
8573;BME280;4324;42.012;24.872;2023-04-05T02:31:54;98220.97;;;7.76;68.98
8573;BME280;4324;42.012;24.872;2023-04-05T02:34:21;98224.25;;;7.79;70.19
8573;BME280;4324;42.012;24.872;2023-04-05T02:36:50;98223.94;;;7.73;69.46
8573;BME280;4324;42.012;24.872;2023-04-05T02:39:17;98203.50;;;7.67;69.93
8573;BME280;4324;42.012;24.872;2023-04-05T02:41:44;98220.97;;;7.76;72.05
8573;BME280;4324;42.012;24.872;2023-04-05T02:44:12;98204.50;;;7.66;74.32
8573;BME280;4324;42.012;24.872;2023-04-05T02:46:39;98231.50;;;7.76;72.59
8573;BME280;4324;42.012;24.872;2023-04-05T02:49:06;98229.88;;;7.75;72.67
8573;BME280;4324;42.012;24.872;2023-04-05T02:51:33;98224.94;;;7.72;72.19
8573;BME280;4324;42.012;24.872;2023-04-05T02:54:02;98183.81;;;7.39;72.01
8573;BME280;4324;42.012;24.872;2023-04-05T02:56:29;98210.13;;;7.55;71.26
8573;BME280;4324;42.012;24.872;2023-04-05T02:58:55;98213.41;;;7.57;70.46
8573;BME280;4324;42.012;24.872;2023-04-05T03:01:23;98224.75;;;7.66;70.61
8573;BME280;4324;42.012;24.872;2023-04-05T03:03:49;98225.75;;;7.65;70.06
8573;BME280;4324;42.012;24.872;2023-04-05T03:06:16;98241.38;;;7.66;69.74
8573;BME280;4324;42.012;24.872;2023-04-05T03:08:45;98243.53;;;7.63;69.01
8573;BME280;4324;42.012;24.872;2023-04-05T03:11:15;98240.72;;;7.56;69.99
8573;BME280;4324;42.012;24.872;2023-04-05T03:13:42;98250.44;;;7.56;70.86
8573;BME280;4324;42.012;24.872;2023-04-05T03:16:09;98244.53;;;7.62;70.87
8573;BME280;4324;42.012;24.872;2023-04-05T03:18:37;98247.66;;;7.57;69.65
8573;BME280;4324;42.012;24.872;2023-04-05T03:21:03;98243.72;;;7.61;70.13
8573;BME280;4324;42.012;24.872;2023-04-05T03:23:30;98226.94;;;7.46;69.50
8573;BME280;4324;42.012;24.872;2023-04-05T03:25:58;98230.19;;;7.56;69.54
8573;BME280;4324;42.012;24.872;2023-04-05T03:28:27;98242.38;;;7.49;69.62
8573;BME280;4324;42.012;24.872;2023-04-05T03:30:56;98234.47;;;7.49;70.08
8573;BME280;4324;42.012;24.872;2023-04-05T03:33:23;98248.00;;;7.46;69.29
8573;BME280;4324;42.012;24.872;2023-04-05T03:35:50;98220.31;;;7.34;69.57
8573;BME280;4324;42.012;24.872;2023-04-05T03:38:17;98254.72;;;7.48;69.05
8573;BME280;4324;42.012;24.872;2023-04-05T03:40:44;98246.00;;;7.48;69.74
8573;BME280;4324;42.012;24.872;2023-04-05T03:43:11;98250.31;;;7.57;71.44
8573;BME280;4324;42.012;24.872;2023-04-05T03:45:39;98205.84;;;7.21;70.27
8573;BME280;4324;42.012;24.872;2023-04-05T03:48:06;98243.56;;;7.46;71.71
8573;BME280;4324;42.012;24.872;2023-04-05T03:50:33;98256.53;;;7.48;70.99
8573;BME280;4324;42.012;24.872;2023-04-05T03:52:59;98252.91;;;7.49;70.14
8573;BME280;4324;42.012;24.872;2023-04-05T03:55:26;98251.44;;;7.55;72.59
8573;BME280;4324;42.012;24.872;2023-04-05T03:57:53;98261.81;;;7.56;73.80
8573;BME280;4324;42.012;24.872;2023-04-05T04:00:20;98231.03;;;7.40;73.62
8573;BME280;4324;42.012;24.872;2023-04-05T04:02:50;98251.13;;;7.49;73.58
8573;BME280;4324;42.012;24.872;2023-04-05T04:05:18;98239.28;;;7.45;74.63
8573;BME280;4324;42.012;24.872;2023-04-05T04:07:45;98270.06;;;7.61;73.17
8573;BME280;4324;42.012;24.872;2023-04-05T04:10:15;98275.00;;;7.64;71.97
8573;BME280;4324;42.012;24.872;2023-04-05T04:12:42;98279.28;;;7.65;71.99
8573;BME280;4324;42.012;24.872;2023-04-05T04:15:10;98282.56;;;7.67;70.21
8573;BME280;4324;42.012;24.872;2023-04-05T04:17:37;98276.66;;;7.65;70.86
8573;BME280;4324;42.012;24.872;2023-04-05T04:20:07;98285.22;;;7.75;70.84
8573;BME280;4324;42.012;24.872;2023-04-05T04:22:36;98275.63;;;7.74;70.60
8573;BME280;4324;42.012;24.872;2023-04-05T04:25:06;98233.16;;;7.45;72.94
8573;BME280;4324;42.012;24.872;2023-04-05T04:27:35;98295.75;;;7.84;71.50
8573;BME280;4324;42.012;24.872;2023-04-05T04:30:06;98260.19;;;7.71;74.06
8573;BME280;4324;42.012;24.872;2023-04-05T04:32:35;98280.41;;;7.87;72.69
8573;BME280;4324;42.012;24.872;2023-04-05T04:35:22;98287.81;;;7.92;72.28
8573;BME280;4324;42.012;24.872;2023-04-05T04:37:52;98308.41;;;8.05;75.06
8573;BME280;4324;42.012;24.872;2023-04-05T04:40:20;98310.06;;;8.06;76.57
8573;BME280;4324;42.012;24.872;2023-04-05T04:42:47;98288.81;;;7.99;74.93
8573;BME280;4324;42.012;24.872;2023-04-05T04:45:16;98279.28;;;7.90;72.29
8573;BME280;4324;42.012;24.872;2023-04-05T04:47:44;98313.19;;;8.01;70.97
8573;BME280;4324;42.012;24.872;2023-04-05T04:50:12;98314.50;;;7.97;71.07
8573;BME280;4324;42.012;24.872;2023-04-05T04:52:42;98320.75;;;7.96;70.87
8573;BME280;4324;42.012;24.872;2023-04-05T04:55:09;98319.13;;;7.95;70.44
8573;BME280;4324;42.012;24.872;2023-04-05T04:57:38;98331.63;;;7.93;69.87
8573;BME280;4324;42.012;24.872;2023-04-05T05:00:07;98321.59;;;7.80;69.95
8573;BME280;4324;42.012;24.872;2023-04-05T05:02:39;98325.06;;;7.89;71.73
8573;BME280;4324;42.012;24.872;2023-04-05T05:05:08;98341.03;;;7.95;73.51
8573;BME280;4324;42.012;24.872;2023-04-05T05:07:37;98328.19;;;7.84;73.12
8573;BME280;4324;42.012;24.872;2023-04-05T05:10:07;98333.94;;;7.88;72.49
8573;BME280;4324;42.012;24.872;2023-04-05T05:12:34;98334.94;;;7.95;72.76
8573;BME280;4324;42.012;24.872;2023-04-05T05:15:02;98345.50;;;7.95;71.98
8573;BME280;4324;42.012;24.872;2023-04-05T05:17:29;98334.13;;;7.94;72.06
8573;BME280;4324;42.012;24.872;2023-04-05T05:19:59;98332.97;;;8.05;71.49
8573;BME280;4324;42.012;24.872;2023-04-05T05:22:26;98266.44;;;7.62;71.42
8573;BME280;4324;42.012;24.872;2023-04-05T05:24:53;98329.31;;;8.14;70.69
8573;BME280;4324;42.012;24.872;2023-04-05T05:27:21;98341.50;;;8.32;71.46
8573;BME280;4324;42.012;24.872;2023-04-05T05:29:48;98292.59;;;8.05;71.74
8573;BME280;4324;42.012;24.872;2023-04-05T05:32:15;98335.06;;;8.42;72.17
8573;BME280;4324;42.012;24.872;2023-04-05T05:34:42;98337.22;;;8.47;71.30
8573;BME280;4324;42.012;24.872;2023-04-05T05:37:09;98341.81;;;8.45;71.07
8573;BME280;4324;42.012;24.872;2023-04-05T05:39:36;98338.53;;;8.43;70.61
8573;BME280;4324;42.012;24.872;2023-04-05T05:42:04;98336.91;;;8.42;69.23
8573;BME280;4324;42.012;24.872;2023-04-05T05:44:32;98340.66;;;8.47;71.12
8573;BME280;4324;42.012;24.872;2023-04-05T05:47:00;98323.03;;;8.40;69.41
8573;BME280;4324;42.012;24.872;2023-04-05T05:49:27;98342.78;;;8.52;69.58
8573;BME280;4324;42.012;24.872;2023-04-05T05:51:54;98337.19;;;8.55;69.66
8573;BME280;4324;42.012;24.872;2023-04-05T05:54:21;98347.06;;;8.61;70.35
8573;BME280;4324;42.012;24.872;2023-04-05T05:56:48;98336.84;;;8.58;70.60
8573;BME280;4324;42.012;24.872;2023-04-05T05:59:15;98336.03;;;8.58;70.35
8573;BME280;4324;42.012;24.872;2023-04-05T06:01:43;98313.75;;;8.52;69.18
8573;BME280;4324;42.012;24.872;2023-04-05T06:04:11;98323.47;;;8.60;68.45
8573;BME280;4324;42.012;24.872;2023-04-05T06:06:38;98353.63;;;8.73;68.71
8573;BME280;4324;42.012;24.872;2023-04-05T06:09:07;98360.72;;;8.73;68.45
8573;BME280;4324;42.012;24.872;2023-04-05T06:11:34;98335.81;;;8.67;67.13
8573;BME280;4324;42.012;24.872;2023-04-05T06:14:02;98324.31;;;8.60;67.81
8573;BME280;4324;42.012;24.872;2023-04-05T06:16:29;98360.88;;;8.80;68.04
8573;BME280;4324;42.012;24.872;2023-04-05T06:18:57;98349.97;;;8.83;67.08
8573;BME280;4324;42.012;24.872;2023-04-05T06:21:24;98346.00;;;8.79;66.33
8573;BME280;4324;42.012;24.872;2023-04-05T06:23:51;98356.72;;;8.85;66.26
8573;BME280;4324;42.012;24.872;2023-04-05T06:26:19;98341.06;;;8.84;66.00
8573;BME280;4324;42.012;24.872;2023-04-05T06:28:47;98344.31;;;8.86;65.85
8573;BME280;4324;42.012;24.872;2023-04-05T06:31:15;98345.66;;;8.90;66.08
8573;BME280;4324;42.012;24.872;2023-04-05T06:33:43;98329.81;;;8.90;66.32
8573;BME280;4324;42.012;24.872;2023-04-05T06:36:12;98357.63;;;9.01;66.10
8573;BME280;4324;42.012;24.872;2023-04-05T06:38:39;98321.84;;;8.98;64.79
8573;BME280;4324;42.012;24.872;2023-04-05T06:41:07;98381.44;;;9.32;68.21
8573;BME280;4324;42.012;24.872;2023-04-05T06:43:34;98355.66;;;9.34;66.22
8573;BME280;4324;42.012;24.872;2023-04-05T06:46:01;98364.06;;;9.37;64.50
8573;BME280;4324;42.012;24.872;2023-04-05T06:48:28;98366.31;;;9.49;63.63
8573;BME280;4324;42.012;24.872;2023-04-05T06:50:58;98359.78;;;9.59;65.05
8573;BME280;4324;42.012;24.872;2023-04-05T06:53:27;98389.19;;;9.64;64.11
8573;BME280;4324;42.012;24.872;2023-04-05T06:55:55;98371.03;;;9.61;64.46
8573;BME280;4324;42.012;24.872;2023-04-05T06:58:22;98369.75;;;9.57;63.26
8573;BME280;4324;42.012;24.872;2023-04-05T07:00:49;98395.16;;;9.58;63.03
8573;BME280;4324;42.012;24.872;2023-04-05T07:03:17;98385.25;;;9.60;62.65
8573;BME280;4324;42.012;24.872;2023-04-05T07:05:49;98387.19;;;9.66;64.76
8573;BME280;4324;42.012;24.872;2023-04-05T07:08:17;98374.56;;;9.77;65.85
8573;BME280;4324;42.012;24.872;2023-04-05T07:10:46;98391.13;;;9.93;65.18
8573;BME280;4324;42.012;24.872;2023-04-05T07:13:13;98388.66;;;9.92;63.20
8573;BME280;4324;42.012;24.872;2023-04-05T07:15:40;98383.78;;;9.81;62.57
8573;BME280;4324;42.012;24.872;2023-04-05T07:18:07;98385.72;;;9.87;62.50
8573;BME280;4324;42.012;24.872;2023-04-05T07:20:34;98380.78;;;9.84;62.09
8573;BME280;4324;42.012;24.872;2023-04-05T07:23:01;98377.00;;;9.78;63.32
8573;BME280;4324;42.012;24.872;2023-04-05T07:25:28;98374.91;;;9.74;63.27
8573;BME280;4324;42.012;24.872;2023-04-05T07:27:56;98324.75;;;9.42;64.01
8573;BME280;4324;42.012;24.872;2023-04-05T07:30:24;98389.13;;;9.73;64.18
8573;BME280;4324;42.012;24.872;2023-04-05T07:32:51;98403.34;;;9.72;65.79
8573;BME280;4324;42.012;24.872;2023-04-05T07:35:18;98401.44;;;9.57;64.32
8573;BME280;4324;42.012;24.872;2023-04-05T07:37:45;98373.81;;;9.37;63.54
8573;BME280;4324;42.012;24.872;2023-04-05T07:40:12;98442.13;;;9.48;62.77
8573;BME280;4324;42.012;24.872;2023-04-05T07:42:42;98413.97;;;9.32;62.36
8573;BME280;4324;42.012;24.872;2023-04-05T07:45:11;98420.09;;;9.25;62.45
8573;BME280;4324;42.012;24.872;2023-04-05T07:47:38;98406.63;;;9.11;62.01
8573;BME280;4324;42.012;24.872;2023-04-05T07:50:06;98404.97;;;9.10;61.29
8573;BME280;4324;42.012;24.872;2023-04-05T07:52:34;98424.06;;;9.29;61.42
8573;BME280;4324;42.012;24.872;2023-04-05T07:55:01;98436.69;;;9.41;62.02
8573;BME280;4324;42.012;24.872;2023-04-05T07:57:28;98417.00;;;9.52;62.08
8573;BME280;4324;42.012;24.872;2023-04-05T07:59:55;98439.75;;;9.61;61.57
8573;BME280;4324;42.012;24.872;2023-04-05T08:02:23;98420.94;;;9.56;62.00
8573;BME280;4324;42.012;24.872;2023-04-05T08:04:50;98431.56;;;9.79;62.17
8573;BME280;4324;42.012;24.872;2023-04-05T08:07:17;98464.69;;;9.90;62.64
8573;BME280;4324;42.012;24.872;2023-04-05T08:09:44;98435.19;;;9.78;60.44
8573;BME280;4324;42.012;24.872;2023-04-05T08:12:11;98416.25;;;9.66;60.78
8573;BME280;4324;42.012;24.872;2023-04-05T08:14:40;98445.19;;;9.91;61.02
8573;BME280;4324;42.012;24.872;2023-04-05T08:17:07;98434.78;;;9.89;61.19
8573;BME280;4324;42.012;24.872;2023-04-05T08:19:35;98430.63;;;9.95;62.99
8573;BME280;4324;42.012;24.872;2023-04-05T08:22:02;98439.44;;;10.10;62.38
8573;BME280;4324;42.012;24.872;2023-04-05T08:24:29;98463.19;;;10.18;62.51
8573;BME280;4324;42.012;24.872;2023-04-05T08:26:56;98466.28;;;10.22;60.77
8573;BME280;4324;42.012;24.872;2023-04-05T08:29:23;98443.66;;;10.19;60.43
8573;BME280;4324;42.012;24.872;2023-04-05T08:31:50;98435.56;;;10.21;61.59
8573;BME280;4324;42.012;24.872;2023-04-05T08:34:17;98457.44;;;10.38;60.75
8573;BME280;4324;42.012;24.872;2023-04-05T08:36:46;98448.50;;;10.39;59.83
8573;BME280;4324;42.012;24.872;2023-04-05T08:39:13;98453.03;;;10.53;60.18
8573;BME280;4324;42.012;24.872;2023-04-05T08:42:01;98426.38;;;10.55;60.85
8573;BME280;4324;42.012;24.872;2023-04-05T08:44:29;98465.00;;;10.79;60.33
8573;BME280;4324;42.012;24.872;2023-04-05T08:46:58;98436.97;;;10.55;59.87
8573;BME280;4324;42.012;24.872;2023-04-05T08:49:25;98451.66;;;10.57;59.44
8573;BME280;4324;42.012;24.872;2023-04-05T08:51:55;98402.75;;;10.30;59.67
8573;BME280;4324;42.012;24.872;2023-04-05T08:54:24;98475.06;;;10.69;60.94
8573;BME280;4324;42.012;24.872;2023-04-05T08:56:51;98447.66;;;10.61;61.47
8573;BME280;4324;42.012;24.872;2023-04-05T08:59:20;98461.16;;;10.66;60.65
8573;BME280;4324;42.012;24.872;2023-04-05T09:01:49;98451.00;;;10.55;59.83
8573;BME280;4324;42.012;24.872;2023-04-05T09:04:20;98460.81;;;10.70;59.98
8573;BME280;4324;42.012;24.872;2023-04-05T09:06:49;98467.84;;;10.77;60.08
8573;BME280;4324;42.012;24.872;2023-04-05T09:09:19;98457.06;;;10.79;60.62
8573;BME280;4324;42.012;24.872;2023-04-05T09:11:47;98439.34;;;10.64;59.83
8573;BME280;4324;42.012;24.872;2023-04-05T09:14:15;98466.03;;;10.78;58.13
8573;BME280;4324;42.012;24.872;2023-04-05T09:16:42;98488.09;;;10.70;56.90
8573;BME280;4324;42.012;24.872;2023-04-05T09:19:09;98460.34;;;10.66;57.33
8573;BME280;4324;42.012;24.872;2023-04-05T09:21:59;98478.09;;;10.80;58.98
8573;BME280;4324;42.012;24.872;2023-04-05T09:24:32;98469.94;;;10.67;58.64
8573;BME280;4324;42.012;24.872;2023-04-05T09:27:05;98477.16;;;10.73;58.93
8573;BME280;4324;42.012;24.872;2023-04-05T09:29:32;98485.66;;;10.69;58.62
8573;BME280;4324;42.012;24.872;2023-04-05T09:32:00;98489.66;;;10.64;57.95
8573;BME280;4324;42.012;24.872;2023-04-05T09:34:29;98481.50;;;10.51;58.14
8573;BME280;4324;42.012;24.872;2023-04-05T09:36:59;98487.78;;;10.50;58.13
8573;BME280;4324;42.012;24.872;2023-04-05T09:39:30;98487.00;;;10.41;58.08
8573;BME280;4324;42.012;24.872;2023-04-05T09:42:06;98513.78;;;10.47;57.81
8573;BME280;4324;42.012;24.872;2023-04-05T09:44:53;98481.91;;;10.40;57.45
8573;BME280;4324;42.012;24.872;2023-04-05T09:47:23;98462.16;;;10.28;58.09
8573;BME280;4324;42.012;24.872;2023-04-05T09:49:52;98441.53;;;10.15;58.32
8573;BME280;4324;42.012;24.872;2023-04-05T09:52:22;98497.72;;;10.48;57.84
8573;BME280;4324;42.012;24.872;2023-04-05T09:54:55;98474.63;;;10.42;59.50
8573;BME280;4324;42.012;24.872;2023-04-05T09:57:26;98467.50;;;10.43;59.52
8573;BME280;4324;42.012;24.872;2023-04-05T09:59:54;98487.63;;;10.66;60.17
8573;BME280;4324;42.012;24.872;2023-04-05T10:02:21;98494.22;;;10.71;58.59
8573;BME280;4324;42.012;24.872;2023-04-05T10:04:48;98490.19;;;10.60;57.73
8573;BME280;4324;42.012;24.872;2023-04-05T10:07:16;98510.47;;;10.68;57.75
8573;BME280;4324;42.012;24.872;2023-04-05T10:09:45;98487.63;;;10.66;57.56
8573;BME280;4324;42.012;24.872;2023-04-05T10:12:20;98401.53;;;9.95;55.46
8573;BME280;4324;42.012;24.872;2023-04-05T10:14:51;98488.22;;;10.39;55.81
8573;BME280;4324;42.012;24.872;2023-04-05T10:17:23;98498.91;;;10.46;55.97
8573;BME280;4324;42.012;24.872;2023-04-05T10:19:58;98494.88;;;10.35;57.21
8573;BME280;4324;42.012;24.872;2023-04-05T10:22:37;98499.50;;;10.33;56.94
8573;BME280;4324;42.012;24.872;2023-04-05T10:25:12;98509.94;;;10.26;56.71
8573;BME280;4324;42.012;24.872;2023-04-05T10:27:46;98479.31;;;10.09;57.95
8573;BME280;4324;42.012;24.872;2023-04-05T10:30:15;98503.41;;;10.14;58.56
8573;BME280;4324;42.012;24.872;2023-04-05T10:33:06;98515.88;;;10.05;59.03
8573;BME280;4324;42.012;24.872;2023-04-05T10:35:43;98500.34;;;10.02;58.33
8573;BME280;4324;42.012;24.872;2023-04-05T10:38:19;98502.50;;;9.99;58.46
8573;BME280;4324;42.012;24.872;2023-04-05T10:40:48;98508.56;;;10.07;58.07
8573;BME280;4324;42.012;24.872;2023-04-05T10:43:20;98508.31;;;10.25;58.71
8573;BME280;4324;42.012;24.872;2023-04-05T10:45:52;98487.66;;;10.21;58.80
8573;BME280;4324;42.012;24.872;2023-04-05T10:48:27;98513.06;;;10.30;58.47
8573;BME280;4324;42.012;24.872;2023-04-05T10:50:59;98525.31;;;10.31;58.07
8573;BME280;4324;42.012;24.872;2023-04-05T10:53:26;98522.50;;;10.32;57.93
8573;BME280;4324;42.012;24.872;2023-04-05T10:55:54;98515.66;;;10.38;59.68
8573;BME280;4324;42.012;24.872;2023-04-05T10:58:23;98515.31;;;10.41;59.27
8573;BME280;4324;42.012;24.872;2023-04-05T11:00:53;98523.91;;;10.43;58.73
8573;BME280;4324;42.012;24.872;2023-04-05T11:03:44;98516.31;;;10.40;58.83
8573;BME280;4324;42.012;24.872;2023-04-05T11:06:22;98519.31;;;10.37;57.98
8573;BME280;4324;42.012;24.872;2023-04-05T11:08:52;98506.16;;;10.29;58.55
8573;BME280;4324;42.012;24.872;2023-04-05T11:11:21;98532.88;;;10.34;59.02
8573;BME280;4324;42.012;24.872;2023-04-05T11:13:50;98529.38;;;10.10;59.46
8573;BME280;4324;42.012;24.872;2023-04-05T11:16:19;98532.06;;;10.02;60.16
8573;BME280;4324;42.012;24.872;2023-04-05T11:18:47;98537.03;;;10.05;60.03
8573;BME280;4324;42.012;24.872;2023-04-05T11:21:22;98531.16;;;10.18;60.49
8573;BME280;4324;42.012;24.872;2023-04-05T11:24:01;98527.97;;;10.23;60.62
8573;BME280;4324;42.012;24.872;2023-04-05T11:26:32;98509.50;;;10.14;60.88
8573;BME280;4324;42.012;24.872;2023-04-05T11:28:59;98523.56;;;10.15;60.54
8573;BME280;4324;42.012;24.872;2023-04-05T11:31:27;98544.56;;;10.16;60.54
8573;BME280;4324;42.012;24.872;2023-04-05T11:33:56;98541.78;;;10.10;60.96
8573;BME280;4324;42.012;24.872;2023-04-05T11:36:35;98532.69;;;10.12;60.69
8573;BME280;4324;42.012;24.872;2023-04-05T11:39:24;98528.03;;;10.14;60.95
8573;BME280;4324;42.012;24.872;2023-04-05T11:42:02;98527.41;;;10.12;60.82
8573;BME280;4324;42.012;24.872;2023-04-05T11:44:39;98525.03;;;10.17;61.34
8573;BME280;4324;42.012;24.872;2023-04-05T11:47:11;98532.94;;;10.26;61.36
8573;BME280;4324;42.012;24.872;2023-04-05T11:49:38;98530.31;;;10.17;61.36
8573;BME280;4324;42.012;24.872;2023-04-05T11:52:11;98538.00;;;10.04;61.67
8573;BME280;4324;42.012;24.872;2023-04-05T11:54:39;98528.19;;;9.82;61.87
8573;BME280;4324;42.012;24.872;2023-04-05T11:57:14;98548.75;;;9.63;62.79
8573;BME280;4324;42.012;24.872;2023-04-05T11:59:41;98525.19;;;9.54;62.96
8573;BME280;4324;42.012;24.872;2023-04-05T12:02:10;98526.19;;;9.44;63.79
8573;BME280;4324;42.012;24.872;2023-04-05T12:04:37;98531.44;;;9.53;64.49
8573;BME280;4324;42.012;24.872;2023-04-05T12:07:11;98519.09;;;9.53;64.71
8573;BME280;4324;42.012;24.872;2023-04-05T12:09:58;98524.13;;;9.71;64.86
8573;BME280;4324;42.012;24.872;2023-04-05T12:12:25;98462.25;;;9.49;65.13
8573;BME280;4324;42.012;24.872;2023-04-05T12:14:57;98531.03;;;10.11;65.23
8573;BME280;4324;42.012;24.872;2023-04-05T12:17:40;98502.44;;;10.07;63.80
8573;BME280;4324;42.012;24.872;2023-04-05T12:20:08;98530.38;;;10.40;63.17
8573;BME280;4324;42.012;24.872;2023-04-05T12:22:36;98488.63;;;10.28;63.29
8573;BME280;4324;42.012;24.872;2023-04-05T12:25:04;98476.38;;;10.27;63.43
8573;BME280;4324;42.012;24.872;2023-04-05T12:27:31;98536.13;;;10.67;63.31
8573;BME280;4324;42.012;24.872;2023-04-05T12:30:06;98521.91;;;10.68;62.63
8573;BME280;4324;42.012;24.872;2023-04-05T12:32:44;98515.56;;;10.54;62.09
8573;BME280;4324;42.012;24.872;2023-04-05T12:35:12;98528.38;;;10.65;62.19
8573;BME280;4324;42.012;24.872;2023-04-05T12:37:39;98523.19;;;10.72;62.26
8573;BME280;4324;42.012;24.872;2023-04-05T12:40:10;98529.38;;;10.64;61.51
8573;BME280;4324;42.012;24.872;2023-04-05T12:42:37;98519.72;;;10.49;60.95
8573;BME280;4324;42.012;24.872;2023-04-05T12:45:06;98532.44;;;10.53;61.21
8573;BME280;4324;42.012;24.872;2023-04-05T12:47:35;98529.41;;;10.56;60.64
8573;BME280;4324;42.012;24.872;2023-04-05T12:50:15;98543.06;;;10.45;60.52
8573;BME280;4324;42.012;24.872;2023-04-05T12:52:57;98537.56;;;10.32;60.93
8573;BME280;4324;42.012;24.872;2023-04-05T12:55:25;98524.34;;;10.24;60.55
8573;BME280;4324;42.012;24.872;2023-04-05T12:57:53;98526.34;;;10.22;60.82
8573;BME280;4324;42.012;24.872;2023-04-05T13:00:21;98520.75;;;10.16;61.03
8573;BME280;4324;42.012;24.872;2023-04-05T13:02:51;98536.88;;;10.30;60.84
8573;BME280;4324;42.012;24.872;2023-04-05T13:05:21;98526.16;;;10.23;59.75
8573;BME280;4324;42.012;24.872;2023-04-05T13:07:49;98542.78;;;10.09;59.34
8573;BME280;4324;42.012;24.872;2023-04-05T13:10:16;98530.72;;;10.06;59.84
8573;BME280;4324;42.012;24.872;2023-04-05T13:12:44;98542.66;;;10.02;59.71
8573;BME280;4324;42.012;24.872;2023-04-05T13:15:11;98551.63;;;9.93;59.48
8573;BME280;4324;42.012;24.872;2023-04-05T13:17:38;98550.97;;;9.91;59.63
8573;BME280;4324;42.012;24.872;2023-04-05T13:20:06;98551.94;;;9.90;59.72
8573;BME280;4324;42.012;24.872;2023-04-05T13:22:35;98528.75;;;9.69;59.86
8573;BME280;4324;42.012;24.872;2023-04-05T13:25:02;98552.34;;;9.79;60.54
8573;BME280;4324;42.012;24.872;2023-04-05T13:27:29;98535.53;;;9.72;60.28
8573;BME280;4324;42.012;24.872;2023-04-05T13:29:56;98554.97;;;9.79;60.82